Airport View

Enter AWOS ICAO identifier for current METAR.

ex. KFNL

KPCW 212315Z AUTO 18004KT 10SM CLR 24/19 A3011 RMK AO2

21 Sep 2019 23:24

Frequency: 118.775

Phone: 419-734-9955

Other Area AWOS: CWNB - KTDZ - KLPR - KTTF

TAF KTOL 211720Z 2118/2218 23010KT P6SM SCT050 SCT200 TEMPO 2119/2122 VRB20G30KT -TSRA SCT030 OVC050CB FM221400 23015G22KT P6SM SCT050 BKN170